TimeCDT,TemperatureF,Dew PointF,Humidity,Sea Level PressureIn,VisibilityMPH,Wind Direction,Wind SpeedMPH,Gust SpeedMPH,PrecipitationIn,Events,Conditions,WindDirDegrees,DateUTC
12:54 AM,71.1,64.0,78,29.91,10.0,NNW,5.8,-,N/A,,Clear,330,2013-09-03 05:54:00
1:54 AM,70.0,63.0,78,29.92,10.0,NNW,5.8,-,N/A,,Clear,340,2013-09-03 06:54:00
2:54 AM,69.1,63.0,81,29.94,10.0,North,3.5,-,N/A,,Scattered Clouds,10,2013-09-03 07:54:00
3:54 AM,68.0,63.0,84,29.95,10.0,NNE,3.5,-,N/A,,Partly Cloudy,30,2013-09-03 08:54:00
4:54 AM,68.0,63.0,84,29.96,10.0,NNE,6.9,-,N/A,,Overcast,30,2013-09-03 09:54:00
5:54 AM,68.0,62.1,81,29.98,10.0,NNE,4.6,-,N/A,,Overcast,20,2013-09-03 10:54:00
6:54 AM,68.0,62.1,81,30.00,10.0,NNE,5.8,-,N/A,,Overcast,20,2013-09-03 11:54:00
7:54 AM,68.0,62.1,81,30.03,10.0,NNE,9.2,-,N/A,,Overcast,30,2013-09-03 12:54:00
8:54 AM,71.1,62.1,73,30.04,10.0,NE,8.1,-,N/A,,Clear,50,2013-09-03 13:54:00
9:54 AM,73.9,63.0,68,30.05,10.0,ENE,5.8,-,N/A,,Clear,60,2013-09-03 14:54:00
10:54 AM,77.0,63.0,62,30.05,10.0,NE,8.1,-,N/A,,Clear,40,2013-09-03 15:54:00
11:54 AM,78.1,62.1,58,30.04,10.0,ENE,6.9,-,N/A,,Partly Cloudy,70,2013-09-03 16:54:00
12:54 PM,79.0,62.1,56,30.03,10.0,NNE,6.9,-,N/A,,Scattered Clouds,30,2013-09-03 17:54:00
1:54 PM,81.0,63.0,54,30.03,10.0,NNE,6.9,-,N/A,,Scattered Clouds,20,2013-09-03 18:54:00
2:54 PM,80.1,62.1,54,30.01,10.0,NNW,9.2,-,N/A,,Scattered Clouds,340,2013-09-03 19:54:00
3:54 PM,79.0,60.1,52,30.00,10.0,North,9.2,-,N/A,,Mostly Cloudy,350,2013-09-03 20:54:00
4:54 PM,81.0,60.1,49,30.01,10.0,North,6.9,-,N/A,,Partly Cloudy,360,2013-09-03 21:54:00
5:54 PM,79.0,59.0,50,30.00,10.0,North,6.9,-,N/A,,Partly Cloudy,350,2013-09-03 22:54:00
6:54 PM,75.0,60.1,60,30.01,10.0,North,3.5,-,N/A,,Clear,10,2013-09-03 23:54:00
7:54 PM,71.1,60.1,68,30.02,10.0,NNE,4.6,-,N/A,,Clear,20,2013-09-04 00:54:00
8:54 PM,66.9,59.0,76,30.04,10.0,NE,3.5,-,N/A,,Clear,40,2013-09-04 01:54:00
9:54 PM,66.9,59.0,76,30.05,10.0,ENE,3.5,-,N/A,,Clear,60,2013-09-04 02:54:00
10:54 PM,64.9,59.0,81,30.07,10.0,NNE,3.5,-,N/A,,Clear,30,2013-09-04 03:54:00
11:54 PM,64.9,57.9,78,30.08,10.0,Calm,Calm,-,N/A,,Clear,0,2013-09-04 04:54:00